createdAt,value
2024-03-18T00:03:07.125Z,67.45
2024-03-18T00:06:00.533Z,67.43
2024-03-18T00:08:53.249Z,67.42
2024-03-18T00:11:45.888Z,67.44
2024-03-18T00:14:39.191Z,67.48
2024-03-18T00:17:31.977Z,67.21
2024-03-18T00:20:25.805Z,66.99
2024-03-18T00:23:18.842Z,66.88
2024-03-18T00:26:11.728Z,66.79
2024-03-18T00:29:04.995Z,66.67
2024-03-18T00:31:58.047Z,66.56
2024-03-18T00:34:51.763Z,66.46
2024-03-18T00:37:44.914Z,66.54
2024-03-18T00:40:37.651Z,66.45
2024-03-18T00:43:30.601Z,66.40
2024-03-18T00:46:23.854Z,66.35
2024-03-18T00:49:17.332Z,66.37
2024-03-18T00:52:10.271Z,66.32
2024-03-18T00:55:05.171Z,66.27
2024-03-18T00:57:58.819Z,66.20
2024-03-18T01:00:51.629Z,66.11
2024-03-18T01:03:44.869Z,66.15
2024-03-18T01:06:37.957Z,66.08
2024-03-18T01:09:31.160Z,66.10
2024-03-18T01:12:24.321Z,66.08
2024-03-18T01:15:17.833Z,66.02
2024-03-18T01:18:10.932Z,65.92
2024-03-18T01:21:03.551Z,65.93
2024-03-18T01:23:56.302Z,65.88
2024-03-18T01:26:49.224Z,65.84
2024-03-18T01:29:43.002Z,65.88
2024-03-18T01:32:35.950Z,66.04
2024-03-18T01:35:30.730Z,66.22
2024-03-18T01:38:23.723Z,66.18
2024-03-18T01:41:16.713Z,66.29
2024-03-18T01:44:11.135Z,66.35
2024-03-18T01:47:03.830Z,66.25
2024-03-18T01:49:57.955Z,66.42
2024-03-18T01:52:50.977Z,66.52
2024-03-18T01:55:46.827Z,66.60
2024-03-18T01:58:42.819Z,66.64
2024-03-18T02:01:35.781Z,66.63
2024-03-18T02:04:29.137Z,66.81
2024-03-18T02:07:31.176Z,67.37
2024-03-18T02:10:24.684Z,68.29
2024-03-18T02:13:18.148Z,69.25
2024-03-18T02:16:11.965Z,69.75
2024-03-18T02:19:07.014Z,70.30
2024-03-18T02:22:07.954Z,70.48
2024-03-18T02:25:12.764Z,70.70
2024-03-18T02:28:10.875Z,70.98
2024-03-18T02:31:13.509Z,71.30
2024-03-18T02:34:09.026Z,71.56
2024-03-18T02:37:11.533Z,71.76
2024-03-18T02:40:14.030Z,72.00
2024-03-18T02:43:08.893Z,72.26
2024-03-18T02:46:14.081Z,72.60
2024-03-18T02:49:13.108Z,72.72
2024-03-18T02:52:14.936Z,73.12
2024-03-18T02:55:12.333Z,73.28
2024-03-18T02:58:09.630Z,73.52
2024-03-18T03:01:03.289Z,73.68
2024-03-18T03:04:01.169Z,73.60
2024-03-18T03:07:00.220Z,73.72
2024-03-18T03:10:07.409Z,73.83
2024-03-18T03:13:01.432Z,73.93
2024-03-18T03:16:01.854Z,74.10
2024-03-18T03:19:01.036Z,74.16
2024-03-18T03:22:10.641Z,74.23
2024-03-18T03:25:08.848Z,74.34
2024-03-18T03:28:10.443Z,74.40
2024-03-18T03:31:17.081Z,74.38
2024-03-18T03:34:13.484Z,74.41
2024-03-18T03:37:08.554Z,74.43
2024-03-18T03:40:04.669Z,74.67
2024-03-18T03:43:01.535Z,74.81
2024-03-18T03:46:05.913Z,74.93
2024-03-18T03:49:01.924Z,74.99
2024-03-18T03:51:57.899Z,75.06
2024-03-18T03:54:51.477Z,75.17
2024-03-18T03:57:47.135Z,75.11
2024-03-18T04:00:48.087Z,75.12
2024-03-18T04:03:49.100Z,75.34
2024-03-18T04:06:49.141Z,75.15
2024-03-18T04:09:49.207Z,75.20
2024-03-18T04:12:49.772Z,75.31
2024-03-18T04:15:48.555Z,75.45
2024-03-18T04:18:46.048Z,75.50
2024-03-18T04:21:42.665Z,75.51
2024-03-18T04:24:39.244Z,75.45
2024-03-18T04:27:38.695Z,75.52
2024-03-18T04:30:43.217Z,75.39
2024-03-18T04:33:42.220Z,75.38
2024-03-18T04:36:41.292Z,75.58
2024-03-18T04:39:36.963Z,75.79
2024-03-18T04:42:35.312Z,76.03
2024-03-18T04:45:41.904Z,75.89
2024-03-18T04:48:38.127Z,75.91
2024-03-18T04:51:35.713Z,75.97
2024-03-18T04:54:30.049Z,75.94
2024-03-18T04:57:30.979Z,76.07
2024-03-18T05:00:29.110Z,76.13
2024-03-18T05:03:24.072Z,76.18
2024-03-18T05:06:20.714Z,76.33
2024-03-18T05:09:19.588Z,76.31
2024-03-18T05:12:16.148Z,76.23
2024-03-18T05:15:16.166Z,76.34
2024-03-18T05:18:12.570Z,76.27
2024-03-18T05:21:15.539Z,76.21
2024-03-18T05:24:11.681Z,76.33
2024-03-18T05:27:10.582Z,76.26
2024-03-18T05:30:08.796Z,75.99
2024-03-18T05:33:09.282Z,76.02
2024-03-18T05:36:10.389Z,76.00
2024-03-18T05:39:04.271Z,76.00
2024-03-18T05:41:57.284Z,75.93
2024-03-18T05:44:56.531Z,75.68
2024-03-18T05:47:50.079Z,75.43
2024-03-18T05:50:48.161Z,75.20
2024-03-18T05:53:42.346Z,74.99
2024-03-18T05:56:41.358Z,74.71
2024-03-18T05:59:41.091Z,74.58
2024-03-18T06:02:35.523Z,74.34
2024-03-18T06:05:28.934Z,74.18
2024-03-18T06:08:22.170Z,74.17
2024-03-18T06:11:15.464Z,74.21
2024-03-18T06:14:11.397Z,74.24
2024-03-18T06:17:05.862Z,74.27
2024-03-18T06:20:00.064Z,74.40
2024-03-18T06:22:54.543Z,74.39
2024-03-18T06:25:58.849Z,74.34
2024-03-18T06:28:52.109Z,74.30
2024-03-18T06:31:46.016Z,74.25
2024-03-18T06:34:42.356Z,74.19
2024-03-18T06:37:40.572Z,74.04
2024-03-18T06:40:33.559Z,73.96
2024-03-18T06:43:26.350Z,73.85
2024-03-18T06:46:19.097Z,73.75
2024-03-18T06:49:12.554Z,73.60
2024-03-18T06:52:07.740Z,73.43
2024-03-18T06:55:01.385Z,73.32
2024-03-18T06:57:54.732Z,73.26
2024-03-18T07:00:47.984Z,73.21
2024-03-18T07:03:41.611Z,73.26
2024-03-18T07:06:34.302Z,73.24
2024-03-18T07:09:26.955Z,73.30
2024-03-18T07:12:19.702Z,73.26
2024-03-18T07:15:17.338Z,73.16
2024-03-18T07:18:10.470Z,72.83
2024-03-18T07:21:03.328Z,72.64
2024-03-18T07:23:56.351Z,72.44
2024-03-18T07:26:49.237Z,72.10
2024-03-18T07:29:41.840Z,71.61
2024-03-18T07:32:35.096Z,70.70
2024-03-18T07:35:27.742Z,69.90
2024-03-18T07:38:25.957Z,69.38
2024-03-18T07:41:19.185Z,69.01
2024-03-18T07:44:12.190Z,67.99
2024-03-18T07:47:05.954Z,64.88
2024-03-18T07:49:59.060Z,62.74
2024-03-18T07:52:51.711Z,62.39
2024-03-18T07:55:44.458Z,62.22
2024-03-18T07:58:37.072Z,62.44
2024-03-18T08:01:30.090Z,62.56
2024-03-18T08:04:22.869Z,62.85
2024-03-18T08:07:16.045Z,63.00
2024-03-18T08:10:10.739Z,63.31
2024-03-18T08:13:03.333Z,63.50
2024-03-18T08:16:00.317Z,63.56
2024-03-18T08:18:53.225Z,63.74
2024-03-18T08:21:45.988Z,63.73
2024-03-18T08:24:39.367Z,63.37
2024-03-18T08:27:33.484Z,63.37
2024-03-18T08:30:26.711Z,63.23
2024-03-18T08:33:25.641Z,62.98
2024-03-18T08:36:22.559Z,63.09
2024-03-18T08:39:15.315Z,62.58
2024-03-18T08:42:08.791Z,62.59
2024-03-18T08:45:01.548Z,62.62
2024-03-18T08:47:54.422Z,62.61
2024-03-18T08:50:47.452Z,62.24
2024-03-18T08:53:44.880Z,61.52
2024-03-18T08:56:39.235Z,60.99
2024-03-18T08:59:32.488Z,60.99
2024-03-18T09:02:25.608Z,60.82
2024-03-18T09:05:19.146Z,60.63
2024-03-18T09:08:11.910Z,60.49
2024-03-18T09:11:05.075Z,60.28
2024-03-18T09:13:57.446Z,60.15
2024-03-18T09:16:50.480Z,59.93
2024-03-18T09:19:43.365Z,60.25
2024-03-18T09:22:36.276Z,60.14
2024-03-18T09:25:32.865Z,59.94
2024-03-18T09:28:26.001Z,59.85
2024-03-18T09:31:19.167Z,59.64
2024-03-18T09:34:11.967Z,59.77
2024-03-18T09:37:05.226Z,60.03
2024-03-18T09:39:58.612Z,60.23
2024-03-18T09:42:51.865Z,60.12
2024-03-18T09:45:45.220Z,60.08
2024-03-18T09:48:38.556Z,60.47
2024-03-18T09:51:36.533Z,60.73
2024-03-18T09:54:29.234Z,60.79
2024-03-18T09:57:27.481Z,60.84
2024-03-18T10:00:21.788Z,60.91
2024-03-18T10:03:21.098Z,60.85
2024-03-18T10:06:15.689Z,60.87
2024-03-18T10:09:08.695Z,60.61
2024-03-18T10:12:01.576Z,60.55
2024-03-18T10:14:54.553Z,60.51
2024-03-18T10:17:47.718Z,60.55
2024-03-18T10:20:40.760Z,60.49
2024-03-18T10:23:37.586Z,60.39
2024-03-18T10:26:33.158Z,60.14
2024-03-18T10:29:25.985Z,60.34
2024-03-18T10:32:28.878Z,60.36
2024-03-18T10:35:27.525Z,60.57
2024-03-18T10:38:26.334Z,60.37
2024-03-18T10:41:22.475Z,60.32
2024-03-18T10:44:21.657Z,60.58
2024-03-18T10:47:17.336Z,60.66
2024-03-18T10:50:17.014Z,60.91
2024-03-18T10:53:19.795Z,60.76
2024-03-18T10:56:11.490Z,60.69
2024-03-18T10:59:04.750Z,60.63
2024-03-18T11:01:57.901Z,60.12
2024-03-18T11:04:51.211Z,59.56
2024-03-18T11:07:47.880Z,59.26
2024-03-18T11:10:42.270Z,59.02
2024-03-18T11:13:39.827Z,58.81
2024-03-18T11:16:36.390Z,58.66
2024-03-18T11:19:31.431Z,58.47
2024-03-18T11:22:24.312Z,58.43
2024-03-18T11:25:23.666Z,58.24
2024-03-18T11:28:17.170Z,58.07
2024-03-18T11:31:12.793Z,58.30
2024-03-18T11:34:11.194Z,58.37
2024-03-18T11:37:06.619Z,58.44
2024-03-18T11:40:00.243Z,58.37
2024-03-18T11:42:53.179Z,58.32
2024-03-18T11:45:54.003Z,58.17
2024-03-18T11:48:47.086Z,58.24
2024-03-18T11:51:44.608Z,58.06
2024-03-18T11:54:41.740Z,58.06
2024-03-18T11:57:35.575Z,57.96
2024-03-18T12:00:28.751Z,57.97
2024-03-18T12:03:23.428Z,57.94
2024-03-18T12:06:16.412Z,57.80
2024-03-18T12:09:12.925Z,57.65
2024-03-18T12:12:09.201Z,57.54
2024-03-18T12:15:02.867Z,57.33
2024-03-18T12:17:55.924Z,57.43
2024-03-18T12:20:54.150Z,57.16
2024-03-18T12:24:04.273Z,57.08
2024-03-18T12:27:14.475Z,57.45
2024-03-18T12:30:20.917Z,57.56
2024-03-18T12:33:16.708Z,57.39
2024-03-18T12:36:14.302Z,57.31
2024-03-18T12:39:11.074Z,57.35
2024-03-18T12:42:04.869Z,57.00
2024-03-18T12:44:59.077Z,56.90
2024-03-18T12:47:53.452Z,56.35
2024-03-18T12:50:47.552Z,56.63
2024-03-18T12:53:40.350Z,56.26
2024-03-18T12:56:33.499Z,56.33
2024-03-18T12:59:26.248Z,56.02
2024-03-18T13:02:21.059Z,55.81
2024-03-18T13:05:15.240Z,55.64
2024-03-18T13:08:12.361Z,55.67
2024-03-18T13:11:07.954Z,55.97
2024-03-18T13:14:00.902Z,56.02
2024-03-18T13:16:57.927Z,55.75
2024-03-18T13:19:51.953Z,56.02
2024-03-18T13:22:44.694Z,56.10
2024-03-18T13:25:38.667Z,55.92
2024-03-18T13:28:31.465Z,56.19
2024-03-18T13:31:24.259Z,56.36
2024-03-18T13:34:18.480Z,56.07
2024-03-18T13:37:11.573Z,56.26
2024-03-18T13:40:05.773Z,56.39
2024-03-18T13:42:59.041Z,56.36
2024-03-18T13:45:56.193Z,56.41
2024-03-18T13:48:49.472Z,56.41
2024-03-18T13:51:42.385Z,56.51
2024-03-18T13:54:35.509Z,56.55
2024-03-18T13:57:28.330Z,56.59
2024-03-18T14:00:25.918Z,56.50
2024-03-18T14:03:18.793Z,56.73
2024-03-18T14:06:13.158Z,56.79
2024-03-18T14:09:08.805Z,56.87
2024-03-18T14:12:02.408Z,56.70
2024-03-18T14:14:55.063Z,56.94
2024-03-18T14:17:49.418Z,56.96
2024-03-18T14:20:42.405Z,57.26
2024-03-18T14:23:35.454Z,57.37
2024-03-18T14:26:28.365Z,57.19
2024-03-18T14:29:21.988Z,56.97
2024-03-18T14:32:16.738Z,57.27
2024-03-18T14:35:16.059Z,57.30
2024-03-18T14:38:09.200Z,57.40
2024-03-18T14:41:06.414Z,57.43
2024-03-18T14:44:00.186Z,57.63
2024-03-18T14:46:52.813Z,57.73
2024-03-18T14:49:45.584Z,57.61
2024-03-18T14:52:38.150Z,57.73
2024-03-18T14:55:31.257Z,58.10
2024-03-18T14:58:24.915Z,58.32
2024-03-18T15:01:20.692Z,58.61
2024-03-18T15:04:13.567Z,58.70
2024-03-18T15:07:07.356Z,58.94
2024-03-18T15:10:00.379Z,59.21
2024-03-18T15:12:53.687Z,59.37
2024-03-18T15:15:46.659Z,59.81
2024-03-18T15:18:40.071Z,60.09
2024-03-18T15:21:33.023Z,60.33
2024-03-18T15:24:39.812Z,60.41
2024-03-18T15:27:48.568Z,60.80
2024-03-18T15:30:43.944Z,61.15
2024-03-18T15:33:36.904Z,61.41
2024-03-18T15:36:30.016Z,61.88
2024-03-18T15:39:23.668Z,62.24
2024-03-18T15:42:16.687Z,62.66
2024-03-18T15:45:12.520Z,63.07
2024-03-18T15:48:05.808Z,62.91
2024-03-18T15:50:59.182Z,62.93
2024-03-18T15:53:52.385Z,63.13
2024-03-18T15:56:54.835Z,63.11
2024-03-18T15:59:54.352Z,63.23
2024-03-18T16:02:50.960Z,63.59
2024-03-18T16:05:44.295Z,63.75
2024-03-18T16:08:40.540Z,63.92
2024-03-18T16:11:39.927Z,64.03
2024-03-18T16:14:33.587Z,64.63
2024-03-18T16:17:26.544Z,64.90
2024-03-18T16:20:19.942Z,65.20
2024-03-18T16:23:13.151Z,65.45
2024-03-18T16:26:06.855Z,65.58
2024-03-18T16:28:59.637Z,65.69
2024-03-18T16:31:52.948Z,65.97
2024-03-18T16:34:45.860Z,66.10
2024-03-18T16:37:38.936Z,66.08
2024-03-18T16:40:31.968Z,66.07
2024-03-18T16:43:25.136Z,66.39
2024-03-18T16:46:17.862Z,66.47
2024-03-18T16:49:11.000Z,66.79
2024-03-18T16:52:04.377Z,67.02
2024-03-18T16:54:57.283Z,67.26
2024-03-18T16:57:50.266Z,67.08
2024-03-18T17:00:45.077Z,67.29
2024-03-18T17:03:38.271Z,67.71
2024-03-18T17:06:31.100Z,68.00
2024-03-18T17:09:24.175Z,68.18
2024-03-18T17:12:17.296Z,68.46
2024-03-18T17:15:11.981Z,68.76
2024-03-18T17:18:05.980Z,69.15
2024-03-18T17:20:59.400Z,69.38
2024-03-18T17:23:54.611Z,69.38
2024-03-18T17:26:47.812Z,69.66
2024-03-18T17:29:41.381Z,70.01
2024-03-18T17:32:34.195Z,70.10
2024-03-18T17:35:44.967Z,70.33
2024-03-18T17:38:41.145Z,70.22
2024-03-18T17:41:34.195Z,70.31
2024-03-18T17:44:27.922Z,70.41
2024-03-18T17:47:21.156Z,70.55
2024-03-18T17:50:14.981Z,70.81
2024-03-18T17:53:07.887Z,71.13
2024-03-18T17:56:01.190Z,71.38
2024-03-18T17:58:54.356Z,71.51
2024-03-18T18:01:47.263Z,71.71
2024-03-18T18:04:40.481Z,71.89
2024-03-18T18:07:33.404Z,72.14
2024-03-18T18:10:26.772Z,72.34
2024-03-18T18:13:19.739Z,72.48
2024-03-18T18:16:14.130Z,72.61
2024-03-18T18:19:07.310Z,72.60
2024-03-18T18:22:00.599Z,72.71
2024-03-18T18:24:58.369Z,72.78
2024-03-18T18:27:53.598Z,72.84
2024-03-18T18:30:46.581Z,73.10
2024-03-18T18:33:40.310Z,73.19
2024-03-18T18:36:33.592Z,73.29
2024-03-18T18:39:27.217Z,73.40
2024-03-18T18:42:20.099Z,73.76
2024-03-18T18:45:14.642Z,73.97
2024-03-18T18:48:09.555Z,74.18
2024-03-18T18:51:03.717Z,74.21
2024-03-18T18:53:56.768Z,74.35
2024-03-18T18:56:49.702Z,74.49
2024-03-18T18:59:43.394Z,74.67
2024-03-18T19:02:37.169Z,74.80
2024-03-18T19:05:31.486Z,75.07
2024-03-18T19:08:24.526Z,75.33
2024-03-18T19:11:17.544Z,75.44
2024-03-18T19:14:13.954Z,75.17
2024-03-18T19:17:08.358Z,75.13
2024-03-18T19:20:01.610Z,75.11
2024-03-18T19:22:54.835Z,74.96
2024-03-18T19:25:54.578Z,74.92
2024-03-18T19:28:48.878Z,74.70
2024-03-18T19:31:43.442Z,74.38
2024-03-18T19:34:36.671Z,74.10
2024-03-18T19:37:30.190Z,74.00
2024-03-18T19:40:26.323Z,73.80
2024-03-18T19:43:21.873Z,73.36
2024-03-18T19:46:16.041Z,73.41
2024-03-18T19:49:09.016Z,73.02
2024-03-18T19:52:01.967Z,72.93
2024-03-18T19:54:55.068Z,72.88
2024-03-18T19:57:49.108Z,72.70
2024-03-18T20:00:42.054Z,72.65
2024-03-18T20:03:35.352Z,73.01
2024-03-18T20:06:28.958Z,72.83
2024-03-18T20:09:22.245Z,72.90
2024-03-18T20:12:15.414Z,72.49
2024-03-18T20:15:12.791Z,72.58
2024-03-18T20:18:06.601Z,72.82
2024-03-18T20:21:00.080Z,72.76
2024-03-18T20:23:52.985Z,72.86
2024-03-18T20:26:47.152Z,72.95
2024-03-18T20:29:40.221Z,73.01
2024-03-18T20:32:32.836Z,72.84
2024-03-18T20:35:26.218Z,72.70
2024-03-18T20:38:20.649Z,73.09
2024-03-18T20:41:14.324Z,73.00
2024-03-18T20:44:07.243Z,73.16
2024-03-18T20:47:05.199Z,73.36
2024-03-18T20:49:58.115Z,73.36
2024-03-18T20:52:51.809Z,73.37
2024-03-18T20:55:48.208Z,73.39
2024-03-18T20:58:41.595Z,73.59
2024-03-18T21:01:35.520Z,73.40
2024-03-18T21:04:30.676Z,73.51
2024-03-18T21:07:24.130Z,73.46
2024-03-18T21:10:19.100Z,73.87
2024-03-18T21:13:12.156Z,73.99
2024-03-18T21:16:08.559Z,74.17
2024-03-18T21:19:01.731Z,73.71
2024-03-18T21:21:54.698Z,73.80
2024-03-18T21:24:47.807Z,73.76
2024-03-18T21:27:41.307Z,73.56
2024-03-18T21:30:34.082Z,73.60
2024-03-18T21:33:27.635Z,73.84
2024-03-18T21:36:20.205Z,73.78
2024-03-18T21:39:14.698Z,73.82
2024-03-18T21:42:08.224Z,73.76
2024-03-18T21:45:01.261Z,74.06
2024-03-18T21:47:54.314Z,74.22
2024-03-18T21:50:48.226Z,74.56
2024-03-18T21:53:41.998Z,74.77
2024-03-18T21:56:34.584Z,74.53
2024-03-18T21:59:28.330Z,74.69
2024-03-18T22:02:21.137Z,74.88
2024-03-18T22:05:14.463Z,74.82
2024-03-18T22:08:09.340Z,74.83
2024-03-18T22:11:02.838Z,75.04
2024-03-18T22:13:55.961Z,75.07
2024-03-18T22:16:48.491Z,75.11
2024-03-18T22:19:41.015Z,75.12
2024-03-18T22:22:35.905Z,75.23
2024-03-18T22:25:28.850Z,75.20
2024-03-18T22:28:22.009Z,75.41
2024-03-18T22:31:19.822Z,75.45
2024-03-18T22:34:13.604Z,75.61
2024-03-18T22:37:07.162Z,75.62
2024-03-18T22:39:59.908Z,75.80
2024-03-18T22:42:52.690Z,75.90
2024-03-18T22:45:46.442Z,75.68
2024-03-18T22:48:39.546Z,75.80
2024-03-18T22:51:33.635Z,75.99
2024-03-18T22:54:26.472Z,75.76
2024-03-18T22:57:19.666Z,75.54
2024-03-18T23:00:18.834Z,75.63
2024-03-18T23:03:14.541Z,75.67
2024-03-18T23:06:07.988Z,75.90
2024-03-18T23:09:01.070Z,75.78
2024-03-18T23:11:53.548Z,75.70
2024-03-18T23:14:46.395Z,75.62
2024-03-18T23:17:39.362Z,75.88
2024-03-18T23:20:32.770Z,75.84
2024-03-18T23:23:25.965Z,76.27
2024-03-18T23:26:19.176Z,76.39
2024-03-18T23:29:13.491Z,76.47
2024-03-18T23:32:07.677Z,76.25
2024-03-18T23:35:00.659Z,76.06
2024-03-18T23:37:53.864Z,76.02
2024-03-18T23:40:49.550Z,76.41
2024-03-18T23:43:42.620Z,76.29
2024-03-18T23:46:36.948Z,76.62
2024-03-18T23:49:30.077Z,76.38
2024-03-18T23:52:23.122Z,76.74
2024-03-18T23:55:16.158Z,76.98
2024-03-18T23:58:10.196Z,77.15
